Trent Woods, North Carolina
Current Conditions -  °F | °C
As of 12:54 AM on Thursday 23 Oct 2014 (Local Time) from KEWN Reporting Station
Few Clouds Few Clouds  
Wind Chill: 56°   Ceiling: Unl
Heat Index: 56°   Visibility: 10mi
Dew Point: 47°   Wind: 7mph
Humidity: 72%   Direction: 280°W
Pressure: 29.99"   Gusts: NA
Location:  35.1369°N, 77.1623°W
Report Text: KEWN 230454Z AUTO 28006KT 10SM FEW044 13/08 A2999 RMK AO2 SLP156 T01330083 401940111
Loading
Personal Weather Stations






























Interactive Weather Map
Tropical Storm Tracking
New forecast layout! Learn more

10-Day Weather Forecast

Advertisements
Track Severe Weather on mobile